createdAt,value
2023-03-24T00:00:05.801Z,0.00
2023-03-24T00:01:05.744Z,0.00
2023-03-24T00:02:05.749Z,0.00
2023-03-24T00:03:05.793Z,0.00
2023-03-24T00:04:05.769Z,0.00
2023-03-24T00:05:05.735Z,0.00
2023-03-24T00:06:05.705Z,0.00
2023-03-24T00:07:05.697Z,0.00
2023-03-24T00:08:05.674Z,0.00
2023-03-24T00:09:05.664Z,0.00
2023-03-24T00:10:05.666Z,0.00
2023-03-24T00:11:05.639Z,0.00
2023-03-24T00:12:05.636Z,0.00
2023-03-24T00:13:05.614Z,0.00
2023-03-24T00:14:05.612Z,0.00
2023-03-24T00:15:05.607Z,0.00
2023-03-24T00:16:05.650Z,0.00
2023-03-24T00:17:05.573Z,0.00
2023-03-24T00:18:05.618Z,0.00
2023-03-24T00:19:05.564Z,0.00
2023-03-24T00:20:05.557Z,0.00
2023-03-24T00:21:05.531Z,0.00
2023-03-24T00:22:05.526Z,0.00
2023-03-24T00:23:05.509Z,0.00
2023-03-24T00:24:05.509Z,0.00
2023-03-24T00:25:05.504Z,0.00
2023-03-24T00:26:05.487Z,0.00
2023-03-24T00:27:05.467Z,0.00
2023-03-24T00:28:05.479Z,0.00
2023-03-24T00:29:05.457Z,0.00
2023-03-24T00:30:05.462Z,0.00
2023-03-24T00:31:05.464Z,0.00
2023-03-24T00:32:05.422Z,0.00
2023-03-24T00:33:05.456Z,0.00
2023-03-24T00:34:05.403Z,0.00
2023-03-24T00:35:05.410Z,0.00
2023-03-24T00:36:05.437Z,0.00
2023-03-24T00:37:05.377Z,0.00
2023-03-24T00:38:05.376Z,0.00
2023-03-24T00:39:05.363Z,0.00
2023-03-24T00:40:05.355Z,0.00
2023-03-24T00:41:05.324Z,0.00
2023-03-24T00:42:05.326Z,0.00
2023-03-24T00:43:05.312Z,0.00
2023-03-24T00:44:05.301Z,0.00
2023-03-24T00:45:05.301Z,0.00
2023-03-24T00:46:05.276Z,0.00
2023-03-24T00:47:05.346Z,0.00
2023-03-24T00:48:05.349Z,0.00
2023-03-24T00:49:05.260Z,0.00
2023-03-24T00:50:05.267Z,0.00
2023-03-24T00:51:05.232Z,0.00
2023-03-24T00:52:05.228Z,0.00
2023-03-24T00:53:05.212Z,0.00
2023-03-24T00:54:05.208Z,0.00
2023-03-24T00:55:05.198Z,0.00
2023-03-24T00:56:05.184Z,0.00
2023-03-24T00:57:05.253Z,0.00
2023-03-24T00:58:05.165Z,0.00
2023-03-24T00:59:05.150Z,0.00
2023-03-24T01:00:05.171Z,0.00
2023-03-24T01:01:05.156Z,0.00
2023-03-24T01:02:05.200Z,0.00
2023-03-24T01:03:05.174Z,0.00
2023-03-24T01:04:05.107Z,0.00
2023-03-24T01:05:05.098Z,0.00
2023-03-24T01:06:05.075Z,0.00
2023-03-24T01:07:05.064Z,0.00
2023-03-24T01:08:05.052Z,0.00
2023-03-24T01:09:05.036Z,0.00
2023-03-24T01:10:05.045Z,0.00
2023-03-24T01:11:05.013Z,0.00
2023-03-24T01:12:05.011Z,0.00
2023-03-24T01:13:04.995Z,0.00
2023-03-24T01:14:04.986Z,0.00
2023-03-24T01:15:04.983Z,0.00
2023-03-24T01:16:05.017Z,0.00
2023-03-24T01:17:04.950Z,0.00
2023-03-24T01:18:04.989Z,0.00
2023-03-24T01:19:04.936Z,0.00
2023-03-24T01:20:04.947Z,0.00
2023-03-24T01:21:04.908Z,0.00
2023-03-24T01:22:04.919Z,0.00
2023-03-24T01:23:04.886Z,0.00
2023-03-24T01:24:04.894Z,0.00
2023-03-24T01:25:04.887Z,0.00
2023-03-24T01:26:04.863Z,0.00
2023-03-24T01:27:04.849Z,0.00
2023-03-24T01:28:04.844Z,0.00
2023-03-24T01:29:04.842Z,0.00
2023-03-24T01:30:04.846Z,0.00
2023-03-24T01:31:04.822Z,0.00
2023-03-24T01:32:04.814Z,0.00
2023-03-24T01:33:04.834Z,0.00
2023-03-24T01:34:04.788Z,0.00
2023-03-24T01:35:04.767Z,0.00
2023-03-24T01:36:04.825Z,0.00
2023-03-24T01:37:04.765Z,0.00
2023-03-24T01:38:04.736Z,0.00
2023-03-24T01:39:04.727Z,0.00
2023-03-24T01:40:04.717Z,0.00
2023-03-24T01:41:04.726Z,0.00
2023-03-24T01:42:04.707Z,0.00
2023-03-24T01:43:04.682Z,0.00
2023-03-24T01:44:04.677Z,0.00
2023-03-24T01:45:04.665Z,0.00
2023-03-24T01:46:04.690Z,0.00
2023-03-24T01:47:04.654Z,0.00
2023-03-24T01:48:04.685Z,0.00
2023-03-24T01:49:04.619Z,0.00
2023-03-24T01:50:04.615Z,0.00
2023-03-24T01:51:04.646Z,0.00
2023-03-24T01:52:04.605Z,0.00
2023-03-24T01:53:04.582Z,0.00
2023-03-24T01:54:04.573Z,0.00
2023-03-24T01:55:04.573Z,0.00
2023-03-24T01:56:04.562Z,0.00
2023-03-24T01:57:04.588Z,0.00
2023-03-24T01:58:04.531Z,0.00
2023-03-24T01:59:04.519Z,0.00
2023-03-24T02:00:04.514Z,0.00
2023-03-24T02:01:04.603Z,0.00
2023-03-24T02:02:04.487Z,0.00
2023-03-24T02:03:04.518Z,0.00
2023-03-24T02:04:04.551Z,0.00
2023-03-24T02:05:04.455Z,0.00
2023-03-24T02:06:04.463Z,0.00
2023-03-24T02:07:04.433Z,0.00
2023-03-24T02:08:04.436Z,0.00
2023-03-24T02:09:04.430Z,0.00
2023-03-24T02:10:04.413Z,0.00
2023-03-24T02:11:04.410Z,0.00
2023-03-24T02:12:04.389Z,0.00
2023-03-24T02:13:04.372Z,0.00
2023-03-24T02:14:04.374Z,0.00
2023-03-24T02:15:04.353Z,0.00
2023-03-24T02:16:04.402Z,0.00
2023-03-24T02:17:04.333Z,0.00
2023-03-24T02:18:04.394Z,0.00
2023-03-24T02:19:04.312Z,0.00
2023-03-24T02:20:04.311Z,0.00
2023-03-24T02:21:04.304Z,0.00
2023-03-24T02:22:04.287Z,0.00
2023-03-24T02:23:04.265Z,0.00
2023-03-24T02:24:04.264Z,0.00
2023-03-24T02:25:04.245Z,0.00
2023-03-24T02:26:04.257Z,0.00
2023-03-24T02:27:04.227Z,0.00
2023-03-24T02:28:04.239Z,0.00
2023-03-24T02:29:04.222Z,0.00
2023-03-24T02:30:04.225Z,0.00
2023-03-24T02:31:04.213Z,0.00
2023-03-24T02:32:04.186Z,0.00
2023-03-24T02:33:04.189Z,0.00
2023-03-24T02:34:04.163Z,0.00
2023-03-24T02:35:04.151Z,0.00
2023-03-24T02:36:04.222Z,0.00
2023-03-24T02:37:04.126Z,0.00
2023-03-24T02:38:04.124Z,0.00
2023-03-24T02:39:04.121Z,0.00
2023-03-24T02:40:04.096Z,0.00
2023-03-24T02:41:04.128Z,0.00
2023-03-24T02:42:04.072Z,0.00
2023-03-24T02:43:04.074Z,0.00
2023-03-24T02:44:04.054Z,0.00
2023-03-24T02:45:04.064Z,0.00
2023-03-24T02:46:04.084Z,0.00
2023-03-24T02:47:04.027Z,0.00
2023-03-24T02:48:04.048Z,0.00
2023-03-24T02:49:04.003Z,0.00
2023-03-24T02:50:03.998Z,0.00
2023-03-24T02:51:04.010Z,0.00
2023-03-24T02:52:03.962Z,0.00
2023-03-24T02:53:03.959Z,0.00
2023-03-24T02:54:03.942Z,0.00
2023-03-24T02:55:03.940Z,0.00
2023-03-24T02:56:03.932Z,0.00
2023-03-24T02:57:03.949Z,0.00
2023-03-24T02:58:03.910Z,0.00
2023-03-24T02:59:03.905Z,0.00
2023-03-24T03:00:03.879Z,0.00
2023-03-24T03:01:03.912Z,0.00
2023-03-24T03:02:03.859Z,0.00
2023-03-24T03:03:03.882Z,0.00
2023-03-24T03:04:03.909Z,0.00
2023-03-24T03:05:03.829Z,0.00
2023-03-24T03:06:03.838Z,0.00
2023-03-24T03:07:03.811Z,0.00
2023-03-24T03:08:03.794Z,0.00
2023-03-24T03:09:03.792Z,0.00
2023-03-24T03:10:03.774Z,0.00
2023-03-24T03:11:03.792Z,0.00
2023-03-24T03:12:03.757Z,0.00
2023-03-24T03:13:03.761Z,0.00
2023-03-24T03:14:03.740Z,0.00
2023-03-24T03:15:03.729Z,0.00
2023-03-24T03:16:03.758Z,0.00
2023-03-24T03:17:03.708Z,0.00
2023-03-24T03:18:03.697Z,0.00
2023-03-24T03:19:03.692Z,0.00
2023-03-24T03:20:03.675Z,0.00
2023-03-24T03:21:03.675Z,0.00
2023-03-24T03:22:03.652Z,0.00
2023-03-24T03:23:03.646Z,0.00
2023-03-24T03:24:03.634Z,0.00
2023-03-24T03:25:03.631Z,0.00
2023-03-24T03:26:03.628Z,0.00
2023-03-24T03:27:03.618Z,0.00
2023-03-24T03:28:03.609Z,0.00
2023-03-24T03:29:03.585Z,0.00
2023-03-24T03:30:03.578Z,0.00
2023-03-24T03:31:03.619Z,0.00
2023-03-24T03:32:03.551Z,0.00
2023-03-24T03:33:03.674Z,0.00
2023-03-24T03:34:03.529Z,0.00
2023-03-24T03:35:03.520Z,0.00
2023-03-24T03:36:03.579Z,0.00
2023-03-24T03:37:03.509Z,0.00
2023-03-24T03:38:03.498Z,0.00
2023-03-24T03:39:03.481Z,0.00
2023-03-24T03:40:03.465Z,0.00
2023-03-24T03:41:03.482Z,0.00
2023-03-24T03:42:03.467Z,0.00
2023-03-24T03:43:03.442Z,0.00
2023-03-24T03:44:03.435Z,0.00
2023-03-24T03:45:03.421Z,0.00
2023-03-24T03:46:03.454Z,0.00
2023-03-24T03:47:03.401Z,0.00
2023-03-24T03:48:03.442Z,0.00
2023-03-24T03:49:03.388Z,0.00
2023-03-24T03:50:03.371Z,0.00
2023-03-24T03:51:13.206Z,0.00
2023-03-24T03:52:04.346Z,0.00
2023-03-24T03:53:03.336Z,0.00
2023-03-24T03:54:03.325Z,0.00
2023-03-24T03:55:03.315Z,0.00
2023-03-24T03:56:03.354Z,0.00
2023-03-24T03:57:03.349Z,0.00
2023-03-24T03:58:03.282Z,0.00
2023-03-24T03:59:03.286Z,0.00
2023-03-24T04:00:03.256Z,0.00
2023-03-24T04:01:03.272Z,0.00
2023-03-24T04:02:03.294Z,0.00
2023-03-24T04:03:03.300Z,0.00
2023-03-24T04:04:03.214Z,0.00
2023-03-24T04:05:06.487Z,0.00
2023-03-24T04:06:03.217Z,0.00
2023-03-24T04:07:03.186Z,0.00
2023-03-24T04:08:03.176Z,0.00
2023-03-24T04:09:03.173Z,0.00
2023-03-24T04:10:03.150Z,0.00
2023-03-24T04:11:03.163Z,0.00
2023-03-24T04:12:03.139Z,0.00
2023-03-24T04:13:03.124Z,0.00
2023-03-24T04:14:03.112Z,0.00
2023-03-24T04:15:03.113Z,0.00
2023-03-24T04:16:03.137Z,0.00
2023-03-24T04:17:03.088Z,0.00
2023-03-24T04:18:03.109Z,0.00
2023-03-24T04:19:03.068Z,0.00
2023-03-24T04:20:03.060Z,0.00
2023-03-24T04:21:03.041Z,0.00
2023-03-24T04:22:03.056Z,0.00
2023-03-24T04:23:03.057Z,0.00
2023-03-24T04:24:03.009Z,0.00
2023-03-24T04:25:03.075Z,0.00
2023-03-24T04:26:02.993Z,0.00
2023-03-24T04:27:03.007Z,0.00
2023-03-24T04:28:02.965Z,0.00
2023-03-24T04:29:02.976Z,0.00
2023-03-24T04:30:02.946Z,0.00
2023-03-24T04:31:02.971Z,0.00
2023-03-24T04:32:02.944Z,0.00
2023-03-24T04:33:02.958Z,0.00
2023-03-24T04:34:02.907Z,0.00
2023-03-24T04:35:02.900Z,0.00
2023-03-24T04:36:02.902Z,0.00
2023-03-24T04:37:03.042Z,0.00
2023-03-24T04:38:02.873Z,0.00
2023-03-24T04:39:02.867Z,0.00
2023-03-24T04:40:02.863Z,0.00
2023-03-24T04:41:02.834Z,0.00
2023-03-24T04:42:02.836Z,0.00
2023-03-24T04:43:02.817Z,0.00
2023-03-24T04:44:02.806Z,0.00
2023-03-24T04:45:02.790Z,0.00
2023-03-24T04:46:02.837Z,0.00
2023-03-24T04:47:02.789Z,0.00
2023-03-24T04:48:02.783Z,0.00
2023-03-24T04:49:02.752Z,0.00
2023-03-24T04:50:02.740Z,0.00
2023-03-24T04:51:02.734Z,0.00
2023-03-24T04:52:02.741Z,0.00
2023-03-24T04:53:02.714Z,0.00
2023-03-24T04:54:02.699Z,0.00
2023-03-24T04:55:02.691Z,0.00
2023-03-24T04:56:02.694Z,0.00
2023-03-24T04:57:02.786Z,0.00
2023-03-24T04:58:02.716Z,0.00
2023-03-24T04:59:02.651Z,0.00
2023-03-24T05:00:02.632Z,0.00
2023-03-24T05:01:02.664Z,0.00
2023-03-24T05:02:02.625Z,0.00
2023-03-24T05:03:02.636Z,0.00
2023-03-24T05:04:02.776Z,0.00
2023-03-24T05:05:02.591Z,0.00
2023-03-24T05:06:02.616Z,0.00
2023-03-24T05:07:02.582Z,0.00
2023-03-24T05:08:02.569Z,0.00
2023-03-24T05:09:02.547Z,0.00
2023-03-24T05:10:02.539Z,0.00
2023-03-24T05:11:02.537Z,0.00
2023-03-24T05:12:02.524Z,0.00
2023-03-24T05:13:02.512Z,0.00
2023-03-24T05:14:02.501Z,0.00
2023-03-24T05:15:02.492Z,0.00
2023-03-24T05:16:02.515Z,0.00
2023-03-24T05:17:02.498Z,0.00
2023-03-24T05:18:02.555Z,0.00
2023-03-24T05:19:02.444Z,0.00
2023-03-24T05:20:02.481Z,0.00
2023-03-24T05:21:02.423Z,0.00
2023-03-24T05:22:02.430Z,0.00
2023-03-24T05:23:02.407Z,0.00
2023-03-24T05:24:02.394Z,0.00
2023-03-24T05:25:02.402Z,0.00
2023-03-24T05:26:02.386Z,0.00
2023-03-24T05:27:02.380Z,0.00
2023-03-24T05:28:02.356Z,0.00
2023-03-24T05:29:02.379Z,0.00
2023-03-24T05:30:02.335Z,0.00
2023-03-24T05:31:02.341Z,0.00
2023-03-24T05:32:02.325Z,0.00
2023-03-24T05:33:02.359Z,0.00
2023-03-24T05:34:02.300Z,0.00
2023-03-24T05:35:02.300Z,0.00
2023-03-24T05:36:02.326Z,0.00
2023-03-24T05:37:02.306Z,0.00
2023-03-24T05:38:02.251Z,0.00
2023-03-24T05:39:02.274Z,0.00
2023-03-24T05:40:02.249Z,0.00
2023-03-24T05:41:02.234Z,0.00
2023-03-24T05:42:02.221Z,0.00
2023-03-24T05:43:02.216Z,0.00
2023-03-24T05:44:02.210Z,0.00
2023-03-24T05:45:02.207Z,0.00
2023-03-24T05:46:02.245Z,0.00
2023-03-24T05:47:02.184Z,0.00
2023-03-24T05:48:02.184Z,0.00
2023-03-24T05:49:02.140Z,0.00
2023-03-24T05:50:02.137Z,0.00
2023-03-24T05:51:02.121Z,0.00
2023-03-24T05:52:02.125Z,0.00
2023-03-24T05:53:02.105Z,0.00
2023-03-24T05:54:02.091Z,0.00
2023-03-24T05:55:02.095Z,0.00
2023-03-24T05:56:02.075Z,0.00
2023-03-24T05:57:02.062Z,1.00
2023-03-24T05:58:02.093Z,0.00
2023-03-24T05:59:02.053Z,0.00
2023-03-24T06:00:02.038Z,0.00
2023-03-24T06:01:02.024Z,0.00
2023-03-24T06:02:02.044Z,0.00
2023-03-24T06:03:04.076Z,0.00
2023-03-24T06:04:02.036Z,1.00
2023-03-24T06:05:01.927Z,1.00
2023-03-24T06:06:01.970Z,0.00
2023-03-24T06:07:01.982Z,0.00
2023-03-24T06:08:01.944Z,0.00
2023-03-24T06:09:01.935Z,0.00
2023-03-24T06:10:01.949Z,0.00
2023-03-24T06:11:01.930Z,0.00
2023-03-24T06:12:02.017Z,0.00
2023-03-24T06:13:01.860Z,1.00
2023-03-24T06:14:01.843Z,1.00
2023-03-24T06:15:01.842Z,1.00
2023-03-24T06:16:03.703Z,5.00
2023-03-24T06:17:01.815Z,2.00
2023-03-24T06:18:01.799Z,1.00
2023-03-24T06:19:01.784Z,1.00
2023-03-24T06:20:01.769Z,2.00
2023-03-24T06:21:01.769Z,3.00
2023-03-24T06:22:01.772Z,2.00
2023-03-24T06:23:01.756Z,2.00
2023-03-24T06:24:01.724Z,2.00
2023-03-24T06:25:01.720Z,2.00
2023-03-24T06:26:01.715Z,3.00
2023-03-24T06:27:01.714Z,6.00
2023-03-24T06:28:01.684Z,6.00
2023-03-24T06:29:01.680Z,5.00
2023-03-24T06:30:01.674Z,5.00
2023-03-24T06:31:01.706Z,3.00
2023-03-24T06:32:01.657Z,6.00
2023-03-24T06:33:01.676Z,5.00
2023-03-24T06:34:01.627Z,6.00
2023-03-24T06:35:01.623Z,5.00
2023-03-24T06:36:01.623Z,5.00
2023-03-24T06:37:01.618Z,6.00
2023-03-24T06:38:01.586Z,9.00
2023-03-24T06:39:01.596Z,6.00
2023-03-24T06:40:01.570Z,11.00
2023-03-24T06:41:01.560Z,6.00
2023-03-24T06:42:01.563Z,6.00
2023-03-24T06:43:01.554Z,9.00
2023-03-24T06:44:01.520Z,1.00
2023-03-24T06:45:01.519Z,2.00
2023-03-24T06:46:01.528Z,4.00
2023-03-24T06:47:01.506Z,2.00
2023-03-24T06:48:01.509Z,2.00
2023-03-24T06:49:01.475Z,6.00
2023-03-24T06:50:01.460Z,10.00
2023-03-24T06:51:01.543Z,4.00
2023-03-24T06:52:01.453Z,2.00
2023-03-24T06:53:01.438Z,1.00
2023-03-24T06:54:01.424Z,4.00
2023-03-24T06:55:01.405Z,10.00
2023-03-24T06:56:01.406Z,6.00
2023-03-24T06:57:01.421Z,4.00
2023-03-24T06:58:01.385Z,3.00
2023-03-24T06:59:01.367Z,1.00
2023-03-24T07:00:01.396Z,1.00
2023-03-24T07:01:01.360Z,5.00
2023-03-24T07:02:01.402Z,2.00
2023-03-24T07:03:01.442Z,5.00
2023-03-24T07:04:01.367Z,6.00
2023-03-24T07:05:01.319Z,2.00
2023-03-24T07:06:01.309Z,2.00
2023-03-24T07:07:19.624Z,2.00
2023-03-24T07:09:01.270Z,6.00
2023-03-24T07:10:01.274Z,9.00
2023-03-24T07:11:01.242Z,7.00
2023-03-24T07:12:01.242Z,3.00
2023-03-24T07:13:01.238Z,10.00
2023-03-24T07:14:01.227Z,8.00
2023-03-24T07:15:01.201Z,8.00
2023-03-24T07:16:01.222Z,3.00
2023-03-24T07:17:01.178Z,6.00
2023-03-24T07:18:01.277Z,16.00
2023-03-24T07:19:01.241Z,6.00
2023-03-24T07:20:01.182Z,8.00
2023-03-24T07:21:01.136Z,2.00
2023-03-24T07:22:01.130Z,3.00
2023-03-24T07:23:01.146Z,1.00
2023-03-24T07:24:01.125Z,2.00
2023-03-24T07:25:01.115Z,4.00
2023-03-24T07:26:01.097Z,6.00
2023-03-24T07:27:01.076Z,10.00
2023-03-24T07:28:01.079Z,11.00
2023-03-24T07:29:01.075Z,14.00
2023-03-24T07:30:01.051Z,17.00
2023-03-24T07:31:01.367Z,19.00
2023-03-24T07:32:01.148Z,11.00
2023-03-24T07:33:01.042Z,11.00
2023-03-24T07:34:02.152Z,7.00
2023-03-24T07:35:01.004Z,8.00
2023-03-24T07:36:01.074Z,9.00
2023-03-24T07:37:02.138Z,7.00
2023-03-24T07:38:00.988Z,8.00
2023-03-24T07:39:01.024Z,12.00
2023-03-24T07:40:00.947Z,12.00
2023-03-24T07:41:00.933Z,12.00
2023-03-24T07:42:00.941Z,13.00
2023-03-24T07:43:00.928Z,10.00
2023-03-24T07:44:00.906Z,12.00
2023-03-24T07:45:00.885Z,17.00
2023-03-24T07:46:00.921Z,21.00
2023-03-24T07:47:00.864Z,30.00
2023-03-24T07:48:00.952Z,28.00
2023-03-24T07:49:11.851Z,27.00
2023-03-24T07:50:01.849Z,25.00
2023-03-24T07:51:00.829Z,27.00
2023-03-24T07:52:00.826Z,28.00
2023-03-24T07:53:00.826Z,29.00
2023-03-24T07:54:00.795Z,30.00
2023-03-24T07:55:00.799Z,34.00
2023-03-24T07:56:00.793Z,35.00
2023-03-24T07:57:00.781Z,38.00
2023-03-24T07:58:00.784Z,29.00
2023-03-24T07:59:00.827Z,28.00
2023-03-24T08:00:00.740Z,23.00
2023-03-24T08:01:00.724Z,21.00
2023-03-24T08:02:00.842Z,20.00
2023-03-24T08:03:01.065Z,15.00
2023-03-24T08:04:00.840Z,11.00
2023-03-24T08:05:00.681Z,11.00
2023-03-24T08:06:00.676Z,16.00
2023-03-24T08:07:00.668Z,20.00
2023-03-24T08:08:00.679Z,33.00
2023-03-24T08:09:00.635Z,28.00
2023-03-24T08:10:00.654Z,34.00
2023-03-24T08:11:00.624Z,39.00
2023-03-24T08:12:07.101Z,40.00
2023-03-24T08:13:01.610Z,39.00
2023-03-24T08:14:00.716Z,43.00
2023-03-24T08:15:00.581Z,44.00
2023-03-24T08:16:00.576Z,40.00
2023-03-24T08:17:00.577Z,40.00
2023-03-24T08:18:00.628Z,43.00
2023-03-24T08:19:00.552Z,37.00
2023-03-24T08:20:02.614Z,37.00
2023-03-24T08:21:00.514Z,40.00
2023-03-24T08:22:00.523Z,43.00
2023-03-24T08:23:00.541Z,45.00
2023-03-24T08:24:00.506Z,32.00
2023-03-24T08:25:00.491Z,26.00
2023-03-24T08:26:00.481Z,22.00
2023-03-24T08:27:00.458Z,34.00
2023-03-24T08:28:00.486Z,37.00
2023-03-24T08:29:00.443Z,41.00
2023-03-24T08:30:00.423Z,42.00
2023-03-24T08:31:00.509Z,31.00
2023-03-24T08:32:00.411Z,16.00
2023-03-24T08:33:00.529Z,11.00
2023-03-24T08:34:00.396Z,18.00
2023-03-24T08:35:00.364Z,25.00
2023-03-24T08:36:00.373Z,26.00
2023-03-24T08:37:00.353Z,28.00
2023-03-24T08:38:00.371Z,20.00
2023-03-24T08:39:00.334Z,19.00
2023-03-24T08:40:00.319Z,17.00
2023-03-24T08:41:00.305Z,17.00
2023-03-24T08:42:00.310Z,14.00
2023-03-24T08:43:00.313Z,10.00
2023-03-24T08:44:00.290Z,6.00
2023-03-24T08:45:00.268Z,10.00
2023-03-24T08:46:00.292Z,12.00
2023-03-24T08:47:00.240Z,14.00
2023-03-24T08:48:00.339Z,15.00
2023-03-24T08:49:00.216Z,13.00
2023-03-24T08:50:00.231Z,20.00
2023-03-24T08:51:00.218Z,20.00
2023-03-24T08:52:00.189Z,19.00
2023-03-24T08:53:00.201Z,19.00
2023-03-24T08:54:00.172Z,23.00
2023-03-24T08:55:00.162Z,22.00
2023-03-24T08:56:00.184Z,22.00
2023-03-24T08:57:00.201Z,19.00
2023-03-24T08:58:00.173Z,12.00
2023-03-24T08:59:00.112Z,8.00
2023-03-24T09:00:00.139Z,14.00
2023-03-24T09:01:00.097Z,17.00
2023-03-24T09:02:00.181Z,17.00
2023-03-24T09:03:00.168Z,15.00
2023-03-24T09:04:00.092Z,20.00
2023-03-24T09:05:00.148Z,16.00
2023-03-24T09:06:00.370Z,16.00
2023-03-24T09:07:02.309Z,17.00
2023-03-24T09:08:00.060Z,16.00
2023-03-24T09:09:00.012Z,13.00
2023-03-24T09:10:00.043Z,15.00
2023-03-24T09:11:00.015Z,15.00
2023-03-24T09:12:00.000Z,16.00
2023-03-24T09:12:59.979Z,21.00
2023-03-24T09:13:59.972Z,19.00
2023-03-24T09:14:59.955Z,20.00
2023-03-24T09:15:59.983Z,18.00
2023-03-24T09:16:59.924Z,22.00
2023-03-24T09:18:00.049Z,32.00
2023-03-24T09:18:59.914Z,30.00
2023-03-24T09:20:01.999Z,31.00
2023-03-24T09:20:59.887Z,32.00
2023-03-24T09:21:59.887Z,37.00
2023-03-24T09:22:59.890Z,33.00
2023-03-24T09:23:59.868Z,37.00
2023-03-24T09:24:59.848Z,51.00
2023-03-24T09:25:59.860Z,50.00
2023-03-24T09:26:59.822Z,66.00
2023-03-24T09:27:59.834Z,62.00
2023-03-24T09:28:59.808Z,78.00
2023-03-24T09:29:59.823Z,66.00
2023-03-24T09:30:59.844Z,96.00
2023-03-24T09:31:59.781Z,70.00
2023-03-24T09:32:59.824Z,63.00
2023-03-24T09:34:01.126Z,42.00
2023-03-24T09:34:59.744Z,52.00
2023-03-24T09:36:00.368Z,67.00
2023-03-24T09:36:59.717Z,34.00
2023-03-24T09:37:59.732Z,37.00
2023-03-24T09:38:59.703Z,37.00
2023-03-24T09:39:59.712Z,93.00
2023-03-24T09:40:59.679Z,107.00
2023-03-24T09:41:59.679Z,48.00
2023-03-24T09:42:59.676Z,54.00
2023-03-24T09:43:59.655Z,80.00
2023-03-24T09:44:59.643Z,75.00
2023-03-24T09:45:59.633Z,41.00
2023-03-24T09:46:59.645Z,24.00
2023-03-24T09:47:59.645Z,21.00
2023-03-24T09:48:59.603Z,19.00
2023-03-24T09:49:59.598Z,12.00
2023-03-24T09:50:59.583Z,17.00
2023-03-24T09:51:59.572Z,15.00
2023-03-24T09:52:59.615Z,15.00
2023-03-24T09:53:59.591Z,15.00
2023-03-24T09:54:59.572Z,11.00
2023-03-24T09:55:59.543Z,7.00
2023-03-24T09:56:59.591Z,7.00
2023-03-24T09:57:59.528Z,7.00
2023-03-24T09:58:59.502Z,7.00
2023-03-24T09:59:59.515Z,7.00
2023-03-24T10:00:59.484Z,7.00
2023-03-24T10:01:59.510Z,9.00
2023-03-24T10:02:59.572Z,8.00
2023-03-24T10:03:59.623Z,7.00
2023-03-24T10:04:59.448Z,5.00
2023-03-24T10:05:59.442Z,6.00
2023-03-24T10:06:59.418Z,9.00
2023-03-24T10:07:59.427Z,9.00
2023-03-24T10:08:59.463Z,8.00
2023-03-24T10:09:59.425Z,10.00
2023-03-24T10:10:59.394Z,12.00
2023-03-24T10:11:59.369Z,19.00
2023-03-24T10:12:59.352Z,23.00
2023-03-24T10:13:59.369Z,22.00
2023-03-24T10:14:59.360Z,24.00
2023-03-24T10:15:59.378Z,41.00
2023-03-24T10:16:59.315Z,32.00
2023-03-24T10:17:59.343Z,18.00
2023-03-24T10:18:59.313Z,30.00
2023-03-24T10:20:00.320Z,54.00
2023-03-24T10:20:59.278Z,32.00
2023-03-24T10:21:59.292Z,22.00
2023-03-24T10:22:59.261Z,20.00
2023-03-24T10:23:59.258Z,20.00
2023-03-24T10:24:59.236Z,26.00
2023-03-24T10:25:59.233Z,18.00
2023-03-24T10:26:59.211Z,17.00
2023-03-24T10:27:59.218Z,16.00
2023-03-24T10:28:59.234Z,20.00
2023-03-24T10:29:59.228Z,24.00
2023-03-24T10:30:59.180Z,60.00
2023-03-24T10:31:59.216Z,56.00
2023-03-24T10:32:59.163Z,33.00
2023-03-24T10:33:59.174Z,24.00
2023-03-24T10:34:59.134Z,30.00
2023-03-24T10:35:59.164Z,96.00
2023-03-24T10:36:59.141Z,63.00
2023-03-24T10:37:59.107Z,45.00
2023-03-24T10:39:03.916Z,68.00
2023-03-24T10:40:00.130Z,37.00
2023-03-24T10:40:59.076Z,148.00
2023-03-24T10:41:59.066Z,64.00
2023-03-24T10:43:07.108Z,26.00
2023-03-24T10:44:00.067Z,20.00
2023-03-24T10:44:59.056Z,44.00
2023-03-24T10:45:59.070Z,50.00
2023-03-24T10:46:59.015Z,32.00
2023-03-24T10:47:59.023Z,39.00
2023-03-24T10:48:59.038Z,40.00
2023-03-24T10:49:58.986Z,51.00
2023-03-24T10:50:58.987Z,34.00
2023-03-24T10:51:58.972Z,41.00
2023-03-24T10:52:58.949Z,140.00
2023-03-24T10:53:58.968Z,104.00
2023-03-24T10:54:58.933Z,155.00
2023-03-24T10:55:58.937Z,69.00
2023-03-24T10:56:58.992Z,38.00
2023-03-24T10:57:58.906Z,41.00
2023-03-24T10:58:58.921Z,57.00
2023-03-24T10:59:58.881Z,54.00
2023-03-24T11:00:58.983Z,45.00
2023-03-24T11:01:58.994Z,50.00
2023-03-24T11:02:59.005Z,51.00
2023-03-24T11:03:58.856Z,43.00
2023-03-24T11:04:58.833Z,28.00
2023-03-24T11:05:58.816Z,42.00
2023-03-24T11:06:59.828Z,32.00
2023-03-24T11:07:58.800Z,39.00
2023-03-24T11:08:58.799Z,23.00
2023-03-24T11:09:58.772Z,35.00
2023-03-24T11:10:58.773Z,50.00
2023-03-24T11:11:58.767Z,51.00
2023-03-24T11:12:58.763Z,140.00
2023-03-24T11:13:58.771Z,102.00
2023-03-24T11:15:00.070Z,136.00
2023-03-24T11:15:58.732Z,67.00
2023-03-24T11:16:58.753Z,46.00
2023-03-24T11:17:58.760Z,106.00
2023-03-24T11:18:58.707Z,84.00
2023-03-24T11:19:58.674Z,60.00
2023-03-24T11:20:58.661Z,47.00
2023-03-24T11:21:58.648Z,49.00
2023-03-24T11:22:58.694Z,42.00
2023-03-24T11:23:58.659Z,35.00
2023-03-24T11:24:58.625Z,35.00
2023-03-24T11:25:58.606Z,31.00
2023-03-24T11:26:58.664Z,27.00
2023-03-24T11:27:58.585Z,26.00
2023-03-24T11:28:58.602Z,34.00
2023-03-24T11:29:58.565Z,32.00
2023-03-24T11:30:58.606Z,28.00
2023-03-24T11:31:58.589Z,26.00
2023-03-24T11:32:58.574Z,20.00
2023-03-24T11:33:58.531Z,19.00
2023-03-24T11:34:58.524Z,14.00
2023-03-24T11:36:05.187Z,10.00
2023-03-24T11:36:59.564Z,8.00
2023-03-24T11:37:58.481Z,11.00
2023-03-24T11:38:58.505Z,14.00
2023-03-24T11:39:58.466Z,19.00
2023-03-24T11:40:58.453Z,17.00
2023-03-24T11:41:58.444Z,16.00
2023-03-24T11:42:58.441Z,22.00
2023-03-24T11:43:58.434Z,39.00
2023-03-24T11:44:58.428Z,8.00
2023-03-24T11:45:58.403Z,19.00
2023-03-24T11:46:58.392Z,23.00
2023-03-24T11:47:58.447Z,6.00
2023-03-24T11:48:58.388Z,7.00
2023-03-24T11:49:58.360Z,7.00
2023-03-24T11:50:58.353Z,9.00
2023-03-24T11:51:58.366Z,11.00
2023-03-24T11:52:58.365Z,21.00
2023-03-24T11:53:58.327Z,130.00
2023-03-24T11:54:58.333Z,10.00
2023-03-24T11:55:58.295Z,11.00
2023-03-24T11:56:58.337Z,17.00
2023-03-24T11:57:58.276Z,68.00
2023-03-24T11:58:58.312Z,28.00
2023-03-24T11:59:58.383Z,46.00
2023-03-24T12:00:58.247Z,261.00
2023-03-24T12:01:58.245Z,129.00
2023-03-24T12:02:58.308Z,32.00
2023-03-24T12:03:58.326Z,130.00
2023-03-24T12:04:58.251Z,49.00
2023-03-24T12:05:58.259Z,12.00
2023-03-24T12:06:58.212Z,11.00
2023-03-24T12:07:58.205Z,20.00
2023-03-24T12:08:58.198Z,116.00
2023-03-24T12:09:58.163Z,41.00
2023-03-24T12:10:58.160Z,42.00
2023-03-24T12:11:58.138Z,50.00
2023-03-24T12:12:58.124Z,39.00
2023-03-24T12:13:58.128Z,15.00
2023-03-24T12:14:58.191Z,148.00
2023-03-24T12:15:58.123Z,105.00
2023-03-24T12:16:58.093Z,125.00
2023-03-24T12:17:58.095Z,339.00
2023-03-24T12:18:58.101Z,575.00
2023-03-24T12:19:58.065Z,367.00
2023-03-24T12:20:58.058Z,271.00
2023-03-24T12:21:58.052Z,241.00
2023-03-24T12:22:58.039Z,196.00
2023-03-24T12:23:58.038Z,304.00
2023-03-24T12:24:58.013Z,330.00
2023-03-24T12:25:57.990Z,581.00
2023-03-24T12:26:57.991Z,225.00
2023-03-24T12:27:57.984Z,41.00
2023-03-24T12:28:57.984Z,107.00
2023-03-24T12:29:57.945Z,326.00
2023-03-24T12:30:57.972Z,297.00
2023-03-24T12:31:57.937Z,277.00
2023-03-24T12:32:57.934Z,288.00
2023-03-24T12:33:57.920Z,274.00
2023-03-24T12:34:57.897Z,277.00
2023-03-24T12:35:57.963Z,586.00
2023-03-24T12:36:57.883Z,125.00
2023-03-24T12:37:57.870Z,217.00
2023-03-24T12:38:57.888Z,293.00
2023-03-24T12:39:57.841Z,447.00
2023-03-24T12:40:57.837Z,391.00
2023-03-24T12:41:57.832Z,286.00
2023-03-24T12:42:57.827Z,298.00
2023-03-24T12:43:57.822Z,285.00
2023-03-24T12:44:57.796Z,255.00
2023-03-24T12:45:57.826Z,352.00
2023-03-24T12:46:57.846Z,233.00
2023-03-24T12:47:57.836Z,511.00
2023-03-24T12:48:57.767Z,142.00
2023-03-24T12:49:57.738Z,287.00
2023-03-24T12:50:57.738Z,581.00
2023-03-24T12:51:57.718Z,261.00
2023-03-24T12:53:07.621Z,127.00
2023-03-24T12:53:58.721Z,276.00
2023-03-24T12:54:57.694Z,273.00
2023-03-24T12:55:57.684Z,478.00
2023-03-24T12:56:57.817Z,253.00
2023-03-24T12:57:57.673Z,244.00
2023-03-24T12:58:57.690Z,229.00
2023-03-24T12:59:57.639Z,263.00
2023-03-24T13:00:57.695Z,235.00
2023-03-24T13:01:57.667Z,261.00
2023-03-24T13:02:57.707Z,265.00
2023-03-24T13:03:57.630Z,271.00
2023-03-24T13:04:57.596Z,300.00
2023-03-24T13:06:07.236Z,465.00